Cincinnati, Ohio
Traffic Map
Current Weather Conditions
Cincinnati, Ohio
Broken Clouds Light Rain
Broken Clouds
16°
Feels Like: 16°
Wind Chill: 16° Ceiling: 800
Heat Index: 16° Visibility: 9mi
Dew Point: 16° Wind: 7mph
Humidity: 100% Direction: 200° (SSW)
Pressure: 29.91in Gusts: 0mph
Raw Report DataKLUK 010353Z AUTO 20006KT 9SM -RA BKN008 16/16 A2991 RMK AO2 SLP128 P0000 T01560156
Traffic Incident Summary
Active as of:
Severity:
Category:
InformationThere was an issue retrieving the traffic information for this location. Please try a different location or try again shortly.
Advertisements
Track Severe Weather on mobile